createdAt,value
2023-01-29T00:00:38.394Z,0.00
2023-01-29T00:01:38.662Z,0.00
2023-01-29T00:02:38.026Z,0.00
2023-01-29T00:03:38.358Z,0.00
2023-01-29T00:04:38.573Z,0.00
2023-01-29T00:05:38.854Z,0.00
2023-01-29T00:06:39.192Z,0.00
2023-01-29T00:07:39.666Z,0.00
2023-01-29T00:08:39.521Z,0.00
2023-01-29T00:09:39.788Z,0.00
2023-01-29T00:10:41.098Z,0.00
2023-01-29T00:11:40.357Z,0.00
2023-01-29T00:12:40.712Z,0.00
2023-01-29T00:13:41.221Z,0.00
2023-01-29T00:14:41.026Z,0.00
2023-01-29T00:15:41.357Z,0.00
2023-01-29T00:16:41.730Z,0.00
2023-01-29T00:17:42.037Z,0.00
2023-01-29T00:18:43.359Z,0.00
2023-01-29T00:19:42.664Z,0.00
2023-01-29T00:20:42.925Z,0.00
2023-01-29T00:21:43.184Z,0.00
2023-01-29T00:22:43.568Z,0.00
2023-01-29T00:23:43.853Z,0.00
2023-01-29T00:24:45.049Z,0.00
2023-01-29T00:25:44.417Z,0.00
2023-01-29T00:26:44.660Z,0.00
2023-01-29T00:27:45.081Z,0.00
2023-01-29T00:28:45.386Z,0.00
2023-01-29T00:29:45.647Z,0.00
2023-01-29T00:30:45.946Z,0.00
2023-01-29T00:31:46.380Z,0.00
2023-01-29T00:32:46.733Z,0.00
2023-01-29T00:33:47.108Z,0.00
2023-01-29T00:34:47.371Z,0.00
2023-01-29T00:35:48.624Z,0.00
2023-01-29T00:36:48.887Z,0.00
2023-01-29T00:37:48.215Z,0.00
2023-01-29T00:38:48.486Z,0.00
2023-01-29T00:39:48.805Z,0.00
2023-01-29T00:40:49.137Z,0.00
2023-01-29T00:41:49.465Z,0.00
2023-01-29T00:42:49.710Z,0.00
2023-01-29T00:43:50.113Z,0.00
2023-01-29T00:44:50.395Z,0.00
2023-01-29T00:45:50.698Z,0.00
2023-01-29T00:46:51.068Z,0.00
2023-01-29T00:47:51.367Z,0.00
2023-01-29T00:48:51.732Z,0.00
2023-01-29T00:49:52.144Z,0.00
2023-01-29T00:50:52.428Z,0.00
2023-01-29T00:51:52.765Z,0.00
2023-01-29T00:52:53.065Z,0.00
2023-01-29T00:53:53.469Z,0.00
2023-01-29T00:54:53.758Z,0.00
2023-01-29T00:55:54.078Z,0.00
2023-01-29T00:56:54.716Z,0.00
2023-01-29T00:57:54.532Z,0.00
2023-01-29T00:58:55.014Z,0.00
2023-01-29T00:59:57.296Z,0.00
2023-01-29T01:00:55.609Z,0.00
2023-01-29T01:01:55.967Z,0.00
2023-01-29T01:02:56.288Z,0.00
2023-01-29T01:03:56.636Z,0.00
2023-01-29T01:04:56.956Z,0.00
2023-01-29T01:05:57.190Z,0.00
2023-01-29T01:06:57.462Z,0.00
2023-01-29T01:07:57.708Z,0.00
2023-01-29T01:08:59.009Z,0.00
2023-01-29T01:09:58.292Z,0.00
2023-01-29T01:10:59.509Z,0.00
2023-01-29T01:11:58.757Z,0.00
2023-01-29T01:12:59.039Z,0.00
2023-01-29T01:13:59.387Z,0.00
2023-01-29T01:14:59.634Z,0.00
2023-01-29T01:15:59.888Z,0.00
2023-01-29T01:17:00.184Z,0.00
2023-01-29T01:18:00.544Z,0.00
2023-01-29T01:19:00.981Z,0.00
2023-01-29T01:20:01.311Z,0.00
2023-01-29T01:21:26.413Z,0.00
2023-01-29T01:22:27.301Z,0.00
2023-01-29T01:23:26.667Z,0.00
2023-01-29T01:24:27.937Z,0.00
2023-01-29T01:25:27.351Z,0.00
2023-01-29T01:26:27.597Z,0.00
2023-01-29T01:27:28.851Z,0.00
2023-01-29T01:28:28.121Z,0.00
2023-01-29T01:29:28.492Z,0.00
2023-01-29T01:30:28.808Z,0.00
2023-01-29T01:31:29.335Z,0.00
2023-01-29T01:32:29.173Z,0.00
2023-01-29T01:33:29.438Z,0.00
2023-01-29T01:34:30.731Z,0.00
2023-01-29T01:35:30.066Z,0.00
2023-01-29T01:36:30.362Z,0.00
2023-01-29T01:37:31.694Z,0.00
2023-01-29T01:38:31.026Z,0.00
2023-01-29T01:39:31.320Z,0.00
2023-01-29T01:40:31.625Z,0.00
2023-01-29T01:41:31.892Z,0.00
2023-01-29T01:42:32.190Z,0.00
2023-01-29T01:43:33.476Z,0.00
2023-01-29T01:44:32.731Z,0.00
2023-01-29T01:45:33.083Z,0.00
2023-01-29T01:46:34.397Z,0.00
2023-01-29T01:47:33.706Z,0.00
2023-01-29T01:48:33.928Z,0.00
2023-01-29T01:49:34.234Z,0.00
2023-01-29T01:50:34.555Z,0.00
2023-01-29T01:51:34.865Z,0.00
2023-01-29T01:52:35.136Z,0.00
2023-01-29T01:53:35.497Z,0.00
2023-01-29T01:54:35.909Z,0.00
2023-01-29T01:55:36.266Z,0.00
2023-01-29T01:56:36.701Z,0.00
2023-01-29T01:57:36.980Z,0.00
2023-01-29T01:58:37.385Z,0.00
2023-01-29T01:59:37.702Z,0.00
2023-01-29T02:00:38.086Z,0.00
2023-01-29T02:01:38.734Z,0.00
2023-01-29T02:02:38.555Z,0.00
2023-01-29T02:03:38.824Z,0.00
2023-01-29T02:04:40.163Z,0.00
2023-01-29T02:05:39.443Z,0.00
2023-01-29T02:06:39.650Z,0.00
2023-01-29T02:07:39.991Z,0.00
2023-01-29T02:08:41.314Z,0.00
2023-01-29T02:09:40.574Z,0.00
2023-01-29T02:10:40.825Z,0.00
2023-01-29T02:11:41.118Z,0.00
2023-01-29T02:12:41.430Z,0.00
2023-01-29T02:13:41.724Z,0.00
2023-01-29T02:14:42.087Z,0.00
2023-01-29T02:15:42.359Z,0.00
2023-01-29T02:16:42.664Z,0.00
2023-01-29T02:17:43.001Z,0.00
2023-01-29T02:18:43.245Z,0.00
2023-01-29T02:19:44.468Z,0.00
2023-01-29T02:20:44.341Z,0.00
2023-01-29T02:21:43.709Z,0.00
2023-01-29T02:22:44.018Z,0.00
2023-01-29T02:23:44.310Z,0.00
2023-01-29T02:24:44.619Z,0.00
2023-01-29T02:25:44.912Z,0.00
2023-01-29T02:26:45.236Z,0.00
2023-01-29T02:27:45.490Z,0.00
2023-01-29T02:28:45.752Z,0.00
2023-01-29T02:29:46.016Z,0.00
2023-01-29T02:30:46.272Z,0.00
2023-01-29T02:31:46.563Z,0.00
2023-01-29T02:32:46.907Z,0.00
2023-01-29T02:33:47.208Z,0.00
2023-01-29T02:34:47.554Z,0.00
2023-01-29T02:35:47.792Z,0.00
2023-01-29T02:36:48.065Z,0.00
2023-01-29T02:37:48.353Z,0.00
2023-01-29T02:38:48.578Z,0.00
2023-01-29T02:39:48.922Z,0.00
2023-01-29T02:40:49.196Z,0.00
2023-01-29T02:41:49.431Z,0.00
2023-01-29T02:42:49.724Z,0.00
2023-01-29T02:43:49.999Z,0.00
2023-01-29T02:44:50.286Z,0.00
2023-01-29T02:45:50.635Z,0.00
2023-01-29T02:46:50.870Z,0.00
2023-01-29T02:47:51.185Z,0.00
2023-01-29T02:48:51.448Z,0.00
2023-01-29T02:49:51.870Z,0.00
2023-01-29T02:50:52.161Z,0.00
2023-01-29T02:51:52.382Z,0.00
2023-01-29T02:52:52.653Z,0.00
2023-01-29T02:53:52.967Z,0.00
2023-01-29T02:54:53.242Z,0.00
2023-01-29T02:55:53.484Z,0.00
2023-01-29T02:56:53.793Z,0.00
2023-01-29T02:57:54.130Z,0.00
2023-01-29T02:58:54.348Z,0.00
2023-01-29T02:59:54.626Z,0.00
2023-01-29T03:00:54.877Z,0.00
2023-01-29T03:01:55.263Z,0.00
2023-01-29T03:02:55.615Z,0.00
2023-01-29T03:03:55.878Z,0.00
2023-01-29T03:04:56.633Z,0.00
2023-01-29T03:05:56.478Z,0.00
2023-01-29T03:06:56.745Z,0.00
2023-01-29T03:07:57.013Z,0.00
2023-01-29T03:08:57.321Z,0.00
2023-01-29T03:09:57.626Z,0.00
2023-01-29T03:10:57.953Z,0.00
2023-01-29T03:11:58.216Z,0.00
2023-01-29T03:12:58.478Z,0.00
2023-01-29T03:13:58.724Z,0.00
2023-01-29T03:14:59.046Z,0.00
2023-01-29T03:15:59.498Z,0.00
2023-01-29T03:16:59.792Z,0.00
2023-01-29T03:18:00.068Z,0.00
2023-01-29T03:19:00.332Z,0.00
2023-01-29T03:20:00.622Z,0.00
2023-01-29T03:21:01.047Z,0.00
2023-01-29T03:22:01.385Z,0.00
2023-01-29T03:23:01.690Z,0.00
2023-01-29T03:24:01.920Z,0.00
2023-01-29T03:25:02.214Z,0.00
2023-01-29T03:26:02.727Z,0.00
2023-01-29T03:27:02.561Z,0.00
2023-01-29T03:28:02.881Z,0.00
2023-01-29T03:29:02.685Z,0.00
2023-01-29T03:30:03.065Z,0.00
2023-01-29T03:31:04.197Z,0.00
2023-01-29T03:32:03.604Z,0.00
2023-01-29T03:33:04.751Z,0.00
2023-01-29T03:34:04.885Z,0.00
2023-01-29T03:35:05.059Z,0.00
2023-01-29T03:36:05.237Z,0.00
2023-01-29T03:37:05.667Z,0.00
2023-01-29T03:38:05.922Z,0.00
2023-01-29T03:39:06.730Z,0.00
2023-01-29T03:40:06.410Z,0.00
2023-01-29T03:41:07.157Z,0.00
2023-01-29T03:42:07.063Z,0.00
2023-01-29T03:43:07.440Z,0.00
2023-01-29T03:44:07.463Z,0.00
2023-01-29T03:45:07.737Z,0.00
2023-01-29T03:46:07.870Z,0.00
2023-01-29T03:47:08.646Z,0.00
2023-01-29T03:48:08.898Z,0.00
2023-01-29T03:49:08.794Z,0.00
2023-01-29T03:50:09.562Z,0.00
2023-01-29T03:51:09.514Z,0.00
2023-01-29T03:52:10.232Z,0.00
2023-01-29T03:53:10.085Z,0.00
2023-01-29T03:54:10.339Z,0.00
2023-01-29T03:55:11.062Z,0.00
2023-01-29T03:56:10.656Z,0.00
2023-01-29T03:57:11.375Z,0.00
2023-01-29T03:58:11.604Z,0.00
2023-01-29T03:59:11.155Z,0.00
2023-01-29T04:00:11.861Z,0.00
2023-01-29T04:01:11.680Z,0.00
2023-01-29T04:02:11.002Z,0.00
2023-01-29T04:03:11.288Z,0.00
2023-01-29T04:04:13.734Z,0.00
2023-01-29T04:05:13.215Z,0.00
2023-01-29T04:06:12.549Z,0.00
2023-01-29T04:07:14.242Z,0.00
2023-01-29T04:08:13.028Z,0.00
2023-01-29T04:09:13.328Z,0.00
2023-01-29T04:10:13.694Z,0.00
2023-01-29T04:11:14.992Z,0.00
2023-01-29T04:12:14.252Z,0.00
2023-01-29T04:13:14.573Z,0.00
2023-01-29T04:14:14.898Z,0.00
2023-01-29T04:15:15.144Z,0.00
2023-01-29T04:16:15.486Z,0.00
2023-01-29T04:17:15.921Z,0.00
2023-01-29T04:18:16.244Z,0.00
2023-01-29T04:19:16.749Z,0.00
2023-01-29T04:20:16.805Z,0.00
2023-01-29T04:21:16.715Z,0.00
2023-01-29T04:22:16.932Z,0.00
2023-01-29T04:23:17.197Z,0.00
2023-01-29T04:24:17.580Z,0.00
2023-01-29T04:25:18.916Z,0.00
2023-01-29T04:26:19.188Z,0.00
2023-01-29T04:27:18.597Z,0.00
2023-01-29T04:28:19.911Z,0.00
2023-01-29T04:29:18.716Z,0.00
2023-01-29T04:30:19.985Z,0.00
2023-01-29T04:31:19.357Z,0.00
2023-01-29T04:32:19.746Z,0.00
2023-01-29T04:33:20.048Z,0.00
2023-01-29T04:34:20.309Z,0.00
2023-01-29T04:35:21.604Z,0.00
2023-01-29T04:36:20.939Z,0.00
2023-01-29T04:37:22.259Z,0.00
2023-01-29T04:38:22.558Z,0.00
2023-01-29T04:39:21.892Z,0.00
2023-01-29T04:40:22.143Z,0.00
2023-01-29T04:41:22.411Z,0.00
2023-01-29T04:42:22.790Z,0.00
2023-01-29T04:43:24.185Z,0.00
2023-01-29T04:44:24.478Z,0.00
2023-01-29T04:45:24.672Z,0.00
2023-01-29T04:46:24.889Z,0.00
2023-01-29T04:47:26.146Z,0.00
2023-01-29T04:48:25.408Z,0.00
2023-01-29T04:49:24.671Z,0.00
2023-01-29T04:50:25.954Z,0.00
2023-01-29T04:51:26.147Z,0.00
2023-01-29T04:52:26.447Z,0.00
2023-01-29T04:53:26.716Z,0.00
2023-01-29T04:54:27.945Z,0.00
2023-01-29T04:55:26.229Z,0.00
2023-01-29T04:56:26.438Z,0.00
2023-01-29T04:57:27.690Z,0.00
2023-01-29T04:58:27.922Z,0.00
2023-01-29T04:59:28.147Z,0.00
2023-01-29T05:00:27.542Z,0.00
2023-01-29T05:01:28.744Z,0.00
2023-01-29T05:02:29.129Z,0.00
2023-01-29T05:03:28.501Z,0.00
2023-01-29T05:04:29.697Z,0.00
2023-01-29T05:05:29.034Z,0.00
2023-01-29T05:06:29.466Z,0.00
2023-01-29T05:07:29.750Z,0.00
2023-01-29T05:08:30.030Z,0.00
2023-01-29T05:09:30.312Z,0.00
2023-01-29T05:10:30.614Z,0.00
2023-01-29T05:11:30.867Z,0.00
2023-01-29T05:12:32.056Z,0.00
2023-01-29T05:13:33.248Z,0.00
2023-01-29T05:14:31.527Z,0.00
2023-01-29T05:15:31.774Z,0.00
2023-01-29T05:16:32.012Z,0.00
2023-01-29T05:17:34.276Z,0.00
2023-01-29T05:18:33.449Z,0.00
2023-01-29T05:19:32.768Z,0.00
2023-01-29T05:20:33.011Z,0.00
2023-01-29T05:21:34.223Z,0.00
2023-01-29T05:22:33.504Z,0.00
2023-01-29T05:23:33.847Z,0.00
2023-01-29T05:24:34.181Z,0.00
2023-01-29T05:25:35.578Z,0.00
2023-01-29T05:26:36.865Z,0.00
2023-01-29T05:27:35.075Z,0.00
2023-01-29T05:28:35.301Z,0.00
2023-01-29T05:29:35.616Z,0.00
2023-01-29T05:30:35.908Z,0.00
2023-01-29T05:31:36.212Z,0.00
2023-01-29T05:32:36.453Z,0.00
2023-01-29T05:33:37.249Z,0.00
2023-01-29T05:34:37.150Z,0.00
2023-01-29T05:35:39.393Z,0.00
2023-01-29T05:36:37.635Z,0.00
2023-01-29T05:37:37.917Z,0.00
2023-01-29T05:38:38.150Z,0.00
2023-01-29T05:39:39.395Z,0.00
2023-01-29T05:40:40.274Z,0.00
2023-01-29T05:41:39.114Z,0.00
2023-01-29T05:42:39.381Z,0.00
2023-01-29T05:43:39.634Z,0.00
2023-01-29T05:44:39.863Z,0.00
2023-01-29T05:45:40.123Z,0.00
2023-01-29T05:46:40.426Z,0.00
2023-01-29T05:47:40.682Z,0.00
2023-01-29T05:48:41.023Z,0.00
2023-01-29T05:49:41.275Z,0.00
2023-01-29T05:50:41.673Z,0.00
2023-01-29T05:51:41.959Z,0.00
2023-01-29T05:52:43.183Z,0.00
2023-01-29T05:53:42.530Z,0.00
2023-01-29T05:54:43.824Z,0.00
2023-01-29T05:55:46.040Z,0.00
2023-01-29T05:56:43.331Z,0.00
2023-01-29T05:57:43.602Z,0.00
2023-01-29T05:58:45.963Z,0.00
2023-01-29T05:59:45.295Z,0.00
2023-01-29T06:00:44.571Z,0.00
2023-01-29T06:01:44.860Z,0.00
2023-01-29T06:02:46.113Z,0.00
2023-01-29T06:03:46.311Z,0.00
2023-01-29T06:04:46.539Z,0.00
2023-01-29T06:05:45.893Z,0.00
2023-01-29T06:06:48.574Z,0.00
2023-01-29T06:07:46.344Z,0.00
2023-01-29T06:08:46.660Z,0.00
2023-01-29T06:09:48.859Z,0.00
2023-01-29T06:10:48.065Z,0.00
2023-01-29T06:11:47.416Z,0.00
2023-01-29T06:12:47.723Z,0.00
2023-01-29T06:13:48.116Z,0.00
2023-01-29T06:14:49.330Z,0.00
2023-01-29T06:15:48.754Z,0.00
2023-01-29T06:16:49.096Z,0.00
2023-01-29T06:17:50.301Z,0.00
2023-01-29T06:18:49.598Z,0.00
2023-01-29T06:19:49.907Z,0.00
2023-01-29T06:20:50.421Z,0.00
2023-01-29T06:21:51.214Z,0.00
2023-01-29T06:22:50.552Z,0.00
2023-01-29T06:23:50.829Z,0.00
2023-01-29T06:24:52.126Z,0.00
2023-01-29T06:25:51.521Z,0.00
2023-01-29T06:26:51.788Z,0.00
2023-01-29T06:27:53.104Z,0.00
2023-01-29T06:28:52.415Z,1.00
2023-01-29T06:29:52.783Z,1.00
2023-01-29T06:30:53.149Z,0.00
2023-01-29T06:31:53.617Z,1.00
2023-01-29T06:32:53.458Z,1.00
2023-01-29T06:33:55.755Z,2.00
2023-01-29T06:34:54.064Z,1.00
2023-01-29T06:35:55.244Z,2.00
2023-01-29T06:36:55.667Z,2.00
2023-01-29T06:37:54.676Z,2.00
2023-01-29T06:38:54.949Z,2.00
2023-01-29T06:39:55.215Z,3.00
2023-01-29T06:40:55.472Z,3.00
2023-01-29T06:41:55.759Z,4.00
2023-01-29T06:42:56.088Z,5.00
2023-01-29T06:43:56.421Z,6.00
2023-01-29T06:44:56.713Z,7.00
2023-01-29T06:45:57.011Z,9.00
2023-01-29T06:46:57.361Z,10.00
2023-01-29T06:48:01.136Z,13.00
2023-01-29T06:48:57.705Z,16.00
2023-01-29T06:49:58.295Z,20.00
2023-01-29T06:50:59.014Z,24.00
2023-01-29T06:51:58.338Z,30.00
2023-01-29T06:52:58.793Z,36.00
2023-01-29T06:53:58.685Z,44.00
2023-01-29T06:54:58.934Z,50.00
2023-01-29T06:55:59.147Z,55.00
2023-01-29T06:56:59.416Z,60.00
2023-01-29T06:57:59.652Z,63.00
2023-01-29T06:58:59.883Z,68.00
2023-01-29T07:00:00.203Z,74.00
2023-01-29T07:01:01.430Z,81.00
2023-01-29T07:02:00.875Z,87.00
2023-01-29T07:03:01.156Z,94.00
2023-01-29T07:04:02.422Z,102.00
2023-01-29T07:05:01.641Z,109.00
2023-01-29T07:06:03.917Z,117.00
2023-01-29T07:07:02.452Z,121.00
2023-01-29T07:08:03.150Z,125.00
2023-01-29T07:09:03.894Z,129.00
2023-01-29T07:10:03.596Z,135.00
2023-01-29T07:11:02.818Z,145.00
2023-01-29T07:12:04.108Z,158.00
2023-01-29T07:13:05.306Z,169.00
2023-01-29T07:14:03.543Z,179.00
2023-01-29T07:15:03.810Z,188.00
2023-01-29T07:16:04.047Z,196.00
2023-01-29T07:17:06.398Z,208.00
2023-01-29T07:18:04.644Z,225.00
2023-01-29T07:19:04.940Z,246.00
2023-01-29T07:20:06.166Z,270.00
2023-01-29T07:21:06.572Z,293.00
2023-01-29T07:22:05.395Z,310.00
2023-01-29T07:23:05.648Z,326.00
2023-01-29T07:24:06.009Z,342.00
2023-01-29T07:25:07.264Z,360.00
2023-01-29T07:26:07.496Z,379.00
2023-01-29T07:27:08.337Z,395.00
2023-01-29T07:28:07.109Z,407.00
2023-01-29T07:29:08.344Z,420.00
2023-01-29T07:30:08.683Z,434.00
2023-01-29T07:31:08.080Z,452.00
2023-01-29T07:32:08.513Z,478.00
2023-01-29T07:33:08.860Z,503.00
2023-01-29T07:34:09.269Z,522.00
2023-01-29T07:35:10.541Z,538.00
2023-01-29T07:36:11.796Z,561.00
2023-01-29T07:37:11.073Z,593.00
2023-01-29T07:38:10.365Z,623.00
2023-01-29T07:39:10.735Z,635.00
2023-01-29T07:40:11.023Z,638.00
2023-01-29T07:41:11.466Z,636.00
2023-01-29T07:42:11.863Z,639.00
2023-01-29T07:43:12.139Z,649.00
2023-01-29T07:44:12.389Z,660.00
2023-01-29T07:45:12.736Z,668.00
2023-01-29T07:46:13.050Z,678.00
2023-01-29T07:47:17.036Z,687.00
2023-01-29T07:48:13.592Z,695.00
2023-01-29T07:49:14.123Z,707.00
2023-01-29T07:50:14.027Z,729.00
2023-01-29T07:51:14.423Z,767.00
2023-01-29T07:52:14.744Z,819.00
2023-01-29T07:53:14.983Z,884.00
2023-01-29T07:54:16.322Z,955.00
2023-01-29T07:55:15.639Z,1021.00
2023-01-29T07:56:15.860Z,1096.00
2023-01-29T07:57:17.095Z,1181.00
2023-01-29T07:58:18.337Z,1259.00
2023-01-29T07:59:16.622Z,1302.00
2023-01-29T08:00:18.191Z,1298.00
2023-01-29T08:01:19.204Z,1272.00
2023-01-29T08:02:19.444Z,1248.00
2023-01-29T08:03:18.643Z,1226.00
2023-01-29T08:04:18.833Z,1215.00
2023-01-29T08:05:19.055Z,1238.00
2023-01-29T08:06:20.298Z,1292.00
2023-01-29T08:07:19.628Z,1334.00
2023-01-29T08:08:18.897Z,1341.00
2023-01-29T08:09:19.250Z,1350.00
2023-01-29T08:10:19.761Z,1409.00
2023-01-29T08:11:21.047Z,1508.00
2023-01-29T08:12:19.895Z,1608.00
2023-01-29T08:13:21.384Z,1703.00
2023-01-29T08:14:21.230Z,1804.00
2023-01-29T08:15:21.638Z,1954.00
2023-01-29T08:16:21.821Z,2129.00
2023-01-29T08:17:21.266Z,2298.00
2023-01-29T08:18:21.041Z,2478.00
2023-01-29T08:19:21.488Z,2663.00
2023-01-29T08:20:22.688Z,2851.00
2023-01-29T08:21:23.915Z,3038.00
2023-01-29T08:22:22.206Z,3212.00
2023-01-29T08:23:22.468Z,3315.00
2023-01-29T08:24:24.343Z,3341.00
2023-01-29T08:25:25.269Z,3290.00
2023-01-29T08:26:23.334Z,3212.00
2023-01-29T08:27:25.695Z,3189.00
2023-01-29T08:28:24.029Z,3216.00
2023-01-29T08:29:25.863Z,3235.00
2023-01-29T08:30:25.527Z,3256.00
2023-01-29T08:31:24.855Z,3332.00
2023-01-29T08:32:25.174Z,3493.00
2023-01-29T08:33:30.067Z,3705.00
2023-01-29T08:34:25.707Z,3913.00
2023-01-29T08:35:25.593Z,4134.00
2023-01-29T08:36:26.144Z,4384.00
2023-01-29T08:37:26.035Z,4634.00
2023-01-29T08:38:27.272Z,4909.00
2023-01-29T08:39:26.530Z,5219.00
2023-01-29T08:40:26.826Z,5501.00
2023-01-29T08:41:27.212Z,5665.00
2023-01-29T08:42:27.588Z,5687.00
2023-01-29T08:43:28.853Z,5652.00
2023-01-29T08:44:28.176Z,5593.00
2023-01-29T08:45:28.419Z,5372.00
2023-01-29T08:46:28.720Z,4918.00
2023-01-29T08:47:29.721Z,4390.00
2023-01-29T08:48:31.204Z,4009.00
2023-01-29T08:49:29.540Z,3749.00
2023-01-29T08:50:30.168Z,3568.00
2023-01-29T08:51:30.925Z,3481.00
2023-01-29T08:52:31.293Z,3459.00
2023-01-29T08:53:31.655Z,3454.00
2023-01-29T08:54:31.009Z,3434.00
2023-01-29T08:55:31.306Z,3383.00
2023-01-29T08:56:31.552Z,3307.00
2023-01-29T08:57:32.763Z,3222.00
2023-01-29T08:58:32.016Z,3188.00
2023-01-29T08:59:32.285Z,3188.00
2023-01-29T09:00:32.547Z,3186.00
2023-01-29T09:01:32.866Z,3095.00
2023-01-29T09:02:35.415Z,2967.00
2023-01-29T09:03:33.782Z,2915.00
2023-01-29T09:04:35.091Z,3007.00
2023-01-29T09:05:34.480Z,3136.00
2023-01-29T09:06:34.815Z,3252.00
2023-01-29T09:07:36.022Z,3361.00
2023-01-29T09:08:35.315Z,3456.00
2023-01-29T09:09:35.693Z,3458.00
2023-01-29T09:10:38.026Z,3455.00
2023-01-29T09:11:36.258Z,3428.00
2023-01-29T09:12:36.519Z,3473.00
2023-01-29T09:13:37.634Z,3544.00
2023-01-29T09:14:36.899Z,3542.00
2023-01-29T09:15:38.149Z,3507.00
2023-01-29T09:16:37.410Z,3503.00
2023-01-29T09:17:39.898Z,3501.00
2023-01-29T09:18:38.551Z,3574.00
2023-01-29T09:19:38.077Z,3675.00
2023-01-29T09:20:37.839Z,3739.00
2023-01-29T09:21:40.234Z,3776.00
2023-01-29T09:22:39.583Z,3823.00
2023-01-29T09:23:39.863Z,3935.00
2023-01-29T09:24:41.290Z,4009.00
2023-01-29T09:25:40.598Z,4016.00
2023-01-29T09:26:41.856Z,3977.00
2023-01-29T09:27:41.183Z,3979.00
2023-01-29T09:28:40.609Z,4020.00
2023-01-29T09:29:41.941Z,4074.00
2023-01-29T09:30:42.317Z,4162.00
2023-01-29T09:31:42.649Z,4260.00
2023-01-29T09:32:53.719Z,4389.00
2023-01-29T09:33:42.117Z,4545.00
2023-01-29T09:34:42.878Z,4725.00
2023-01-29T09:35:43.641Z,4935.00
2023-01-29T09:36:44.574Z,5182.00
2023-01-29T09:37:43.300Z,5455.00
2023-01-29T09:38:44.479Z,5744.00
2023-01-29T09:39:43.738Z,6056.00
2023-01-29T09:40:43.992Z,6321.00
2023-01-29T09:41:44.214Z,6552.00
2023-01-29T09:42:45.585Z,6804.00
2023-01-29T09:43:44.856Z,7117.00
2023-01-29T09:44:45.131Z,7323.00
2023-01-29T09:45:45.501Z,7271.00
2023-01-29T09:46:46.832Z,7322.00
2023-01-29T09:47:46.126Z,7475.00
2023-01-29T09:48:46.377Z,7881.00
2023-01-29T09:49:47.542Z,8465.00
2023-01-29T09:50:47.964Z,9061.00
2023-01-29T09:51:47.220Z,9534.00
2023-01-29T09:52:47.398Z,9784.00
2023-01-29T09:53:47.638Z,9945.00
2023-01-29T09:54:47.911Z,10083.00
2023-01-29T09:55:48.212Z,10070.00
2023-01-29T09:56:48.495Z,9914.00
2023-01-29T09:57:49.695Z,9593.00
2023-01-29T09:58:48.924Z,9131.00
2023-01-29T09:59:49.184Z,8785.00
2023-01-29T10:00:50.517Z,8585.00
2023-01-29T10:01:51.861Z,8488.00
2023-01-29T10:02:50.306Z,8374.00
2023-01-29T10:03:51.143Z,8250.00
2023-01-29T10:04:51.374Z,8189.00
2023-01-29T10:05:51.643Z,8092.00
2023-01-29T10:06:52.476Z,7961.00
2023-01-29T10:07:51.240Z,7986.00
2023-01-29T10:08:53.721Z,8036.00
2023-01-29T10:09:51.484Z,8212.00
2023-01-29T10:10:51.910Z,8330.00
2023-01-29T10:11:52.282Z,8304.00
2023-01-29T10:12:52.590Z,8430.00
2023-01-29T10:13:53.752Z,8675.00
2023-01-29T10:14:53.136Z,8792.00
2023-01-29T10:15:53.438Z,9092.00
2023-01-29T10:16:56.234Z,9027.00
2023-01-29T10:17:56.057Z,9121.00
2023-01-29T10:18:55.831Z,9590.00
2023-01-29T10:19:56.602Z,9810.00
2023-01-29T10:20:54.895Z,9746.00
2023-01-29T10:21:56.235Z,9935.00
2023-01-29T10:22:55.538Z,9808.00
2023-01-29T10:23:55.561Z,9242.00
2023-01-29T10:24:55.816Z,9332.00
2023-01-29T10:25:57.172Z,9519.00
2023-01-29T10:26:58.377Z,9291.00
2023-01-29T10:27:57.601Z,9298.00
2023-01-29T10:28:57.878Z,9159.00
2023-01-29T10:29:57.306Z,8978.00
2023-01-29T10:30:57.666Z,8611.00
2023-01-29T10:31:59.050Z,8069.00
2023-01-29T10:32:58.413Z,7961.00
2023-01-29T10:34:02.593Z,8022.00
2023-01-29T10:34:58.685Z,7829.00
2023-01-29T10:35:59.924Z,8021.00
2023-01-29T10:37:01.289Z,8374.00
2023-01-29T10:38:01.476Z,8286.00
2023-01-29T10:38:59.879Z,8452.00
2023-01-29T10:40:00.479Z,8365.00
2023-01-29T10:41:00.230Z,8354.00
2023-01-29T10:42:00.502Z,8280.00
2023-01-29T10:43:00.731Z,8166.00
2023-01-29T10:44:00.966Z,8074.00
2023-01-29T10:45:01.302Z,8154.00
2023-01-29T10:46:01.591Z,8258.00
2023-01-29T10:47:02.805Z,8372.00
2023-01-29T10:48:02.196Z,8526.00
2023-01-29T10:49:02.034Z,8837.00
2023-01-29T10:50:04.331Z,8947.00
2023-01-29T10:51:02.580Z,8949.00
2023-01-29T10:52:04.774Z,9147.00
2023-01-29T10:53:05.034Z,9512.00
2023-01-29T10:54:04.277Z,9871.00
2023-01-29T10:55:03.626Z,9903.00
2023-01-29T10:56:10.722Z,9772.00
2023-01-29T10:57:06.461Z,9594.00
2023-01-29T10:58:06.202Z,9614.00
2023-01-29T10:59:04.967Z,9764.00
2023-01-29T11:00:05.497Z,9994.00
2023-01-29T11:01:07.748Z,9826.00
2023-01-29T11:02:07.434Z,9591.00
2023-01-29T11:03:12.474Z,9570.00
2023-01-29T11:04:06.472Z,9290.00
2023-01-29T11:05:07.682Z,9351.00
2023-01-29T11:06:08.944Z,9853.00
2023-01-29T11:07:08.068Z,10012.00
2023-01-29T11:08:07.489Z,9728.00
2023-01-29T11:09:08.767Z,9506.00
2023-01-29T11:10:08.972Z,9256.00
2023-01-29T11:11:09.278Z,9131.00
2023-01-29T11:12:09.086Z,9254.00
2023-01-29T11:13:08.851Z,8688.00
2023-01-29T11:14:11.130Z,7664.00
2023-01-29T11:15:09.434Z,7513.00
2023-01-29T11:16:10.612Z,7717.00
2023-01-29T11:17:09.992Z,8086.00
2023-01-29T11:18:11.500Z,8635.00
2023-01-29T11:19:10.355Z,8859.00
2023-01-29T11:20:10.670Z,8474.00
2023-01-29T11:21:11.879Z,7292.00
2023-01-29T11:22:11.178Z,6965.00
2023-01-29T11:23:12.233Z,6985.00
2023-01-29T11:24:12.391Z,7131.00
2023-01-29T11:25:11.626Z,7264.00
2023-01-29T11:26:11.895Z,7020.00
2023-01-29T11:27:12.236Z,8006.00
2023-01-29T11:28:12.620Z,8861.00
2023-01-29T11:29:13.927Z,8905.00
2023-01-29T11:30:13.156Z,8875.00
2023-01-29T11:31:14.560Z,8758.00
2023-01-29T11:32:13.884Z,8517.00
2023-01-29T11:33:14.148Z,8189.00
2023-01-29T11:34:14.507Z,8404.00
2023-01-29T11:35:14.777Z,8192.00
2023-01-29T11:36:16.568Z,8223.00
2023-01-29T11:37:15.471Z,8469.00
2023-01-29T11:38:15.823Z,8535.00
2023-01-29T11:39:16.078Z,8567.00
2023-01-29T11:40:17.189Z,8392.00
2023-01-29T11:41:16.729Z,8212.00
2023-01-29T11:42:16.973Z,8737.00
2023-01-29T11:43:17.348Z,9244.00
2023-01-29T11:44:17.704Z,9553.00
2023-01-29T11:45:18.986Z,9896.00
2023-01-29T11:46:18.339Z,9963.00
2023-01-29T11:47:18.695Z,9478.00
2023-01-29T11:48:18.998Z,9274.00
2023-01-29T11:49:20.866Z,9744.00
2023-01-29T11:50:19.649Z,9676.00
2023-01-29T11:51:19.675Z,9921.00
2023-01-29T11:52:20.039Z,10075.00
2023-01-29T11:53:20.368Z,10093.00
2023-01-29T11:54:20.652Z,9783.00
2023-01-29T11:55:21.147Z,9703.00
2023-01-29T11:56:21.019Z,9371.00
2023-01-29T11:57:21.411Z,9017.00
2023-01-29T11:58:21.802Z,8720.00
2023-01-29T11:59:22.324Z,8454.00
2023-01-29T12:00:22.125Z,8495.00
2023-01-29T12:01:22.408Z,8515.00
2023-01-29T12:02:23.761Z,8988.00
2023-01-29T12:03:25.044Z,8982.00
2023-01-29T12:04:24.458Z,8754.00
2023-01-29T12:05:23.772Z,8603.00
2023-01-29T12:06:24.087Z,8736.00
2023-01-29T12:07:25.354Z,9577.00
2023-01-29T12:08:24.590Z,9750.00
2023-01-29T12:09:24.997Z,9262.00
2023-01-29T12:10:25.293Z,9216.00
2023-01-29T12:11:25.654Z,9118.00
2023-01-29T12:12:25.941Z,8817.00
2023-01-29T12:13:27.200Z,8410.00
2023-01-29T12:14:26.436Z,7984.00
2023-01-29T12:15:27.118Z,7623.00
2023-01-29T12:16:26.929Z,7338.00
2023-01-29T12:17:27.355Z,7925.00
2023-01-29T12:18:27.768Z,7922.00
2023-01-29T12:19:28.081Z,7836.00
2023-01-29T12:20:28.365Z,8045.00
2023-01-29T12:21:28.697Z,7798.00
2023-01-29T12:22:29.256Z,7877.00
2023-01-29T12:23:29.214Z,8064.00
2023-01-29T12:24:29.485Z,7940.00
2023-01-29T12:25:29.811Z,7936.00
2023-01-29T12:26:30.101Z,7758.00
2023-01-29T12:27:30.415Z,7728.00
2023-01-29T12:28:30.819Z,7667.00
2023-01-29T12:29:31.388Z,7846.00
2023-01-29T12:30:31.225Z,7833.00
2023-01-29T12:31:31.567Z,8068.00
2023-01-29T12:32:31.962Z,8280.00
2023-01-29T12:33:32.328Z,8291.00
2023-01-29T12:34:32.704Z,8128.00
2023-01-29T12:35:33.083Z,8109.00
2023-01-29T12:36:33.400Z,8229.00
2023-01-29T12:37:33.620Z,8043.00
2023-01-29T12:38:33.859Z,8081.00
2023-01-29T12:39:34.198Z,8203.00
2023-01-29T12:40:34.583Z,8400.00
2023-01-29T12:41:35.131Z,8263.00
2023-01-29T12:42:34.936Z,8334.00
2023-01-29T12:43:35.339Z,8434.00
2023-01-29T12:44:35.684Z,8585.00
2023-01-29T12:45:35.943Z,8726.00
2023-01-29T12:46:36.449Z,8776.00
2023-01-29T12:47:36.368Z,9099.00
2023-01-29T12:48:36.748Z,9293.00